sensor_id;sensor_type;location;lat;lon;timestamp;temperature;humidity
14875;DHT22;7529;48.170;17.138;2022-08-01T00:00:15;18.50;52.10
14875;DHT22;7529;48.170;17.138;2022-08-01T00:04:26;18.40;52.30
14875;DHT22;7529;48.170;17.138;2022-08-01T00:08:38;18.40;52.50
14875;DHT22;7529;48.170;17.138;2022-08-01T00:12:49;18.40;52.60
14875;DHT22;7529;48.170;17.138;2022-08-01T00:17:01;18.50;52.70
14875;DHT22;7529;48.170;17.138;2022-08-01T00:21:13;18.50;52.80
14875;DHT22;7529;48.170;17.138;2022-08-01T00:25:24;18.50;52.90
14875;DHT22;7529;48.170;17.138;2022-08-01T00:29:36;18.40;53.00
14875;DHT22;7529;48.170;17.138;2022-08-01T00:33:47;18.30;53.00
14875;DHT22;7529;48.170;17.138;2022-08-01T00:37:59;18.30;53.00
14875;DHT22;7529;48.170;17.138;2022-08-01T00:42:11;18.30;53.00
14875;DHT22;7529;48.170;17.138;2022-08-01T00:46:24;18.40;53.10
14875;DHT22;7529;48.170;17.138;2022-08-01T00:50:35;18.40;53.10
14875;DHT22;7529;48.170;17.138;2022-08-01T00:54:48;18.30;53.20
14875;DHT22;7529;48.170;17.138;2022-08-01T00:58:59;18.20;53.30
14875;DHT22;7529;48.170;17.138;2022-08-01T01:03:11;18.10;53.30
14875;DHT22;7529;48.170;17.138;2022-08-01T01:07:50;18.10;53.40
14875;DHT22;7529;48.170;17.138;2022-08-01T01:12:36;18.10;53.90
14875;DHT22;7529;48.170;17.138;2022-08-01T01:16:53;18.00;54.10
14875;DHT22;7529;48.170;17.138;2022-08-01T01:25:40;18.00;54.00
14875;DHT22;7529;48.170;17.138;2022-08-01T01:30:02;18.00;54.00
14875;DHT22;7529;48.170;17.138;2022-08-01T01:34:17;17.90;54.10
14875;DHT22;7529;48.170;17.138;2022-08-01T01:38:34;17.90;54.30
14875;DHT22;7529;48.170;17.138;2022-08-01T01:42:49;17.80;54.40
14875;DHT22;7529;48.170;17.138;2022-08-01T01:47:00;17.90;54.40
14875;DHT22;7529;48.170;17.138;2022-08-01T01:51:15;17.90;54.60
14875;DHT22;7529;48.170;17.138;2022-08-01T01:55:28;17.90;54.70
14875;DHT22;7529;48.170;17.138;2022-08-01T01:59:41;18.00;54.80
14875;DHT22;7529;48.170;17.138;2022-08-01T02:03:53;18.10;54.90
14875;DHT22;7529;48.170;17.138;2022-08-01T02:08:06;18.10;55.00
14875;DHT22;7529;48.170;17.138;2022-08-01T02:12:20;18.10;55.20
14875;DHT22;7529;48.170;17.138;2022-08-01T02:16:36;18.10;55.40
14875;DHT22;7529;48.170;17.138;2022-08-01T02:20:49;18.10;55.60
14875;DHT22;7529;48.170;17.138;2022-08-01T02:25:14;18.00;55.70
14875;DHT22;7529;48.170;17.138;2022-08-01T02:29:38;18.10;56.00
14875;DHT22;7529;48.170;17.138;2022-08-01T02:33:59;18.20;56.60
14875;DHT22;7529;48.170;17.138;2022-08-01T02:38:14;18.60;56.00
14875;DHT22;7529;48.170;17.138;2022-08-01T02:42:26;18.80;55.70
14875;DHT22;7529;48.170;17.138;2022-08-01T02:46:54;19.00;55.70
14875;DHT22;7529;48.170;17.138;2022-08-01T02:51:09;19.00;55.90
14875;DHT22;7529;48.170;17.138;2022-08-01T02:55:23;19.00;55.70
14875;DHT22;7529;48.170;17.138;2022-08-01T02:59:37;19.00;55.80
14875;DHT22;7529;48.170;17.138;2022-08-01T03:03:50;19.00;55.80
14875;DHT22;7529;48.170;17.138;2022-08-01T03:08:02;19.00;55.90
14875;DHT22;7529;48.170;17.138;2022-08-01T03:12:19;18.90;56.00
14875;DHT22;7529;48.170;17.138;2022-08-01T03:16:38;18.80;56.20
14875;DHT22;7529;48.170;17.138;2022-08-01T03:20:51;18.70;56.20
14875;DHT22;7529;48.170;17.138;2022-08-01T03:25:04;18.60;56.30
14875;DHT22;7529;48.170;17.138;2022-08-01T03:29:20;18.60;56.30
14875;DHT22;7529;48.170;17.138;2022-08-01T03:33:34;18.70;56.20
14875;DHT22;7529;48.170;17.138;2022-08-01T03:37:48;18.70;56.10
14875;DHT22;7529;48.170;17.138;2022-08-01T03:42:09;18.90;56.10
14875;DHT22;7529;48.170;17.138;2022-08-01T03:46:43;19.10;56.00
14875;DHT22;7529;48.170;17.138;2022-08-01T03:50:58;19.30;56.00
14875;DHT22;7529;48.170;17.138;2022-08-01T03:55:11;19.50;55.60
14875;DHT22;7529;48.170;17.138;2022-08-01T03:59:24;19.60;55.50
14875;DHT22;7529;48.170;17.138;2022-08-01T04:03:37;19.70;55.50
14875;DHT22;7529;48.170;17.138;2022-08-01T04:07:50;19.80;55.60
14875;DHT22;7529;48.170;17.138;2022-08-01T04:12:08;19.80;55.70
14875;DHT22;7529;48.170;17.138;2022-08-01T04:16:20;19.90;56.00
14875;DHT22;7529;48.170;17.138;2022-08-01T04:20:32;19.90;56.30
14875;DHT22;7529;48.170;17.138;2022-08-01T04:24:47;19.80;56.50
14875;DHT22;7529;48.170;17.138;2022-08-01T04:29:05;19.70;56.80
14875;DHT22;7529;48.170;17.138;2022-08-01T04:33:19;19.60;56.80
14875;DHT22;7529;48.170;17.138;2022-08-01T04:37:31;19.50;57.00
14875;DHT22;7529;48.170;17.138;2022-08-01T04:41:45;19.50;57.00
14875;DHT22;7529;48.170;17.138;2022-08-01T04:45:58;19.50;57.10
14875;DHT22;7529;48.170;17.138;2022-08-01T04:50:10;19.40;57.30
14875;DHT22;7529;48.170;17.138;2022-08-01T04:54:23;19.40;57.50
14875;DHT22;7529;48.170;17.138;2022-08-01T04:58:36;19.40;57.50
14875;DHT22;7529;48.170;17.138;2022-08-01T05:02:47;19.50;57.50
14875;DHT22;7529;48.170;17.138;2022-08-01T05:06:58;19.80;57.40
14875;DHT22;7529;48.170;17.138;2022-08-01T05:11:10;20.00;57.30
14875;DHT22;7529;48.170;17.138;2022-08-01T05:15:22;20.00;57.20
14875;DHT22;7529;48.170;17.138;2022-08-01T05:19:35;20.20;57.40
14875;DHT22;7529;48.170;17.138;2022-08-01T05:23:48;20.40;57.40
14875;DHT22;7529;48.170;17.138;2022-08-01T05:27:59;20.60;57.40
14875;DHT22;7529;48.170;17.138;2022-08-01T05:32:11;20.80;57.40
14875;DHT22;7529;48.170;17.138;2022-08-01T05:36:22;20.90;57.30
14875;DHT22;7529;48.170;17.138;2022-08-01T05:40:35;20.90;57.40
14875;DHT22;7529;48.170;17.138;2022-08-01T05:44:46;20.60;57.70
14875;DHT22;7529;48.170;17.138;2022-08-01T05:48:59;20.30;58.00
14875;DHT22;7529;48.170;17.138;2022-08-01T05:53:11;20.20;58.30
14875;DHT22;7529;48.170;17.138;2022-08-01T05:57:22;20.20;58.40
14875;DHT22;7529;48.170;17.138;2022-08-01T06:01:34;20.50;58.20
14875;DHT22;7529;48.170;17.138;2022-08-01T06:05:45;21.20;57.70
14875;DHT22;7529;48.170;17.138;2022-08-01T06:09:57;21.70;57.30
14875;DHT22;7529;48.170;17.138;2022-08-01T06:14:11;21.90;56.90
14875;DHT22;7529;48.170;17.138;2022-08-01T06:18:22;22.20;56.80
14875;DHT22;7529;48.170;17.138;2022-08-01T06:22:34;22.60;56.50
14875;DHT22;7529;48.170;17.138;2022-08-01T06:26:46;22.90;56.20
14875;DHT22;7529;48.170;17.138;2022-08-01T06:30:57;23.00;56.20
14875;DHT22;7529;48.170;17.138;2022-08-01T06:35:10;23.30;55.90
14875;DHT22;7529;48.170;17.138;2022-08-01T06:39:21;23.50;55.60
14875;DHT22;7529;48.170;17.138;2022-08-01T06:43:33;23.90;55.30
14875;DHT22;7529;48.170;17.138;2022-08-01T06:47:45;24.50;54.80
14875;DHT22;7529;48.170;17.138;2022-08-01T06:51:56;25.10;54.20
14875;DHT22;7529;48.170;17.138;2022-08-01T06:56:08;26.20;53.40
14875;DHT22;7529;48.170;17.138;2022-08-01T07:00:21;26.90;52.70
14875;DHT22;7529;48.170;17.138;2022-08-01T07:04:34;27.10;52.30
14875;DHT22;7529;48.170;17.138;2022-08-01T07:08:47;27.20;52.00
14875;DHT22;7529;48.170;17.138;2022-08-01T07:12:59;27.30;52.00
14875;DHT22;7529;48.170;17.138;2022-08-01T07:17:10;27.30;51.70
14875;DHT22;7529;48.170;17.138;2022-08-01T07:21:21;27.40;51.60
14875;DHT22;7529;48.170;17.138;2022-08-01T07:25:33;27.70;51.20
14875;DHT22;7529;48.170;17.138;2022-08-01T07:29:44;27.90;50.90
14875;DHT22;7529;48.170;17.138;2022-08-01T07:33:56;27.70;51.00
14875;DHT22;7529;48.170;17.138;2022-08-01T07:38:07;27.90;50.70
14875;DHT22;7529;48.170;17.138;2022-08-01T07:42:19;27.70;50.70
14875;DHT22;7529;48.170;17.138;2022-08-01T07:46:30;28.10;50.60
14875;DHT22;7529;48.170;17.138;2022-08-01T07:50:42;28.10;50.60
14875;DHT22;7529;48.170;17.138;2022-08-01T07:54:53;28.00;50.50
14875;DHT22;7529;48.170;17.138;2022-08-01T07:59:05;28.00;50.50
14875;DHT22;7529;48.170;17.138;2022-08-01T08:03:17;28.50;49.90
14875;DHT22;7529;48.170;17.138;2022-08-01T08:07:28;29.40;49.20
14875;DHT22;7529;48.170;17.138;2022-08-01T08:11:42;30.00;48.60
14875;DHT22;7529;48.170;17.138;2022-08-01T08:15:55;30.60;48.40
14875;DHT22;7529;48.170;17.138;2022-08-01T08:20:07;30.90;48.10
14875;DHT22;7529;48.170;17.138;2022-08-01T08:24:19;30.80;47.80
14875;DHT22;7529;48.170;17.138;2022-08-01T08:28:31;31.40;47.20
14875;DHT22;7529;48.170;17.138;2022-08-01T08:32:42;32.70;46.50
14875;DHT22;7529;48.170;17.138;2022-08-01T08:36:56;33.20;46.00
14875;DHT22;7529;48.170;17.138;2022-08-01T08:41:09;32.90;45.70
14875;DHT22;7529;48.170;17.138;2022-08-01T08:45:21;32.20;45.90
14875;DHT22;7529;48.170;17.138;2022-08-01T08:49:33;32.00;45.10
14875;DHT22;7529;48.170;17.138;2022-08-01T08:53:46;33.20;42.30
14875;DHT22;7529;48.170;17.138;2022-08-01T08:57:58;33.60;42.30
14875;DHT22;7529;48.170;17.138;2022-08-01T09:02:11;32.80;42.70
14875;DHT22;7529;48.170;17.138;2022-08-01T09:06:24;32.10;42.70
14875;DHT22;7529;48.170;17.138;2022-08-01T09:10:35;32.20;42.50
14875;DHT22;7529;48.170;17.138;2022-08-01T09:14:47;31.60;42.90
14875;DHT22;7529;48.170;17.138;2022-08-01T09:19:17;30.80;43.10
14875;DHT22;7529;48.170;17.138;2022-08-01T09:23:35;30.10;43.50
14875;DHT22;7529;48.170;17.138;2022-08-01T09:28:02;29.80;43.80
14875;DHT22;7529;48.170;17.138;2022-08-01T09:32:16;29.70;43.90
14875;DHT22;7529;48.170;17.138;2022-08-01T09:36:45;29.50;44.30
14875;DHT22;7529;48.170;17.138;2022-08-01T09:41:02;29.40;44.60
14875;DHT22;7529;48.170;17.138;2022-08-01T09:45:32;29.30;44.80
14875;DHT22;7529;48.170;17.138;2022-08-01T09:49:44;29.20;45.00
14875;DHT22;7529;48.170;17.138;2022-08-01T09:53:56;29.00;45.10
14875;DHT22;7529;48.170;17.138;2022-08-01T09:58:10;29.10;45.20
14875;DHT22;7529;48.170;17.138;2022-08-01T10:02:38;29.20;45.20
14875;DHT22;7529;48.170;17.138;2022-08-01T10:06:51;29.30;45.10
14875;DHT22;7529;48.170;17.138;2022-08-01T10:11:15;29.00;45.30
14875;DHT22;7529;48.170;17.138;2022-08-01T10:15:28;28.80;45.40
14875;DHT22;7529;48.170;17.138;2022-08-01T10:19:40;28.70;45.40
14875;DHT22;7529;48.170;17.138;2022-08-01T10:23:54;29.10;45.20
14875;DHT22;7529;48.170;17.138;2022-08-01T10:28:14;29.80;44.70
14875;DHT22;7529;48.170;17.138;2022-08-01T10:32:27;30.40;44.40
14875;DHT22;7529;48.170;17.138;2022-08-01T10:36:45;30.70;44.20
14875;DHT22;7529;48.170;17.138;2022-08-01T10:40:59;31.00;43.90
14875;DHT22;7529;48.170;17.138;2022-08-01T11:54:44;33.40;42.50
14875;DHT22;7529;48.170;17.138;2022-08-01T11:59:10;48.10;26.00
14875;DHT22;7529;48.170;17.138;2022-08-01T12:03:27;43.60;27.10
14875;DHT22;7529;48.170;17.138;2022-08-01T12:07:41;40.90;27.80
14875;DHT22;7529;48.170;17.138;2022-08-01T12:11:54;39.20;28.50
14875;DHT22;7529;48.170;17.138;2022-08-01T12:16:10;41.90;27.70
14875;DHT22;7529;48.170;17.138;2022-08-01T12:20:23;44.90;26.90
14875;DHT22;7529;48.170;17.138;2022-08-01T12:24:35;44.90;26.80
14875;DHT22;7529;48.170;17.138;2022-08-01T13:45:19;45.90;26.60
14875;DHT22;7529;48.170;17.138;2022-08-01T13:49:30;49.90;23.60
14875;DHT22;7529;48.170;17.138;2022-08-01T13:53:42;49.60;23.40
14875;DHT22;7529;48.170;17.138;2022-08-01T13:57:53;48.70;23.30
14875;DHT22;7529;48.170;17.138;2022-08-01T14:02:05;47.10;23.70
14875;DHT22;7529;48.170;17.138;2022-08-01T14:06:18;44.80;24.20
14875;DHT22;7529;48.170;17.138;2022-08-01T14:10:32;42.60;24.80
14875;DHT22;7529;48.170;17.138;2022-08-01T14:18:56;39.50;25.40
14875;DHT22;7529;48.170;17.138;2022-08-01T14:23:08;35.10;27.50
14875;DHT22;7529;48.170;17.138;2022-08-01T14:27:20;33.70;28.20
14875;DHT22;7529;48.170;17.138;2022-08-01T14:31:31;32.60;29.10
14875;DHT22;7529;48.170;17.138;2022-08-01T14:35:43;31.00;31.50
14875;DHT22;7529;48.170;17.138;2022-08-01T14:39:55;29.00;34.00
14875;DHT22;7529;48.170;17.138;2022-08-01T14:44:08;27.80;35.20
14875;DHT22;7529;48.170;17.138;2022-08-01T14:48:19;27.10;36.30
14875;DHT22;7529;48.170;17.138;2022-08-01T14:52:32;26.90;36.70
14875;DHT22;7529;48.170;17.138;2022-08-01T14:56:47;26.70;37.20
14875;DHT22;7529;48.170;17.138;2022-08-01T15:00:59;26.80;37.10
14875;DHT22;7529;48.170;17.138;2022-08-01T15:05:10;27.00;37.00
14875;DHT22;7529;48.170;17.138;2022-08-01T15:09:22;27.40;37.00
14875;DHT22;7529;48.170;17.138;2022-08-01T15:13:34;27.70;37.00
14875;DHT22;7529;48.170;17.138;2022-08-01T15:17:45;28.10;37.00
14875;DHT22;7529;48.170;17.138;2022-08-01T15:21:57;28.60;36.90
14875;DHT22;7529;48.170;17.138;2022-08-01T15:26:09;29.90;36.20
14875;DHT22;7529;48.170;17.138;2022-08-01T15:30:24;30.10;36.10
14875;DHT22;7529;48.170;17.138;2022-08-01T15:34:37;29.90;36.20
14875;DHT22;7529;48.170;17.138;2022-08-01T15:38:48;30.60;35.90
14875;DHT22;7529;48.170;17.138;2022-08-01T15:43:00;30.60;36.00
14875;DHT22;7529;48.170;17.138;2022-08-01T15:47:12;30.70;36.10
14875;DHT22;7529;48.170;17.138;2022-08-01T15:51:23;30.90;36.00
14875;DHT22;7529;48.170;17.138;2022-08-01T15:55:36;31.10;35.90
14875;DHT22;7529;48.170;17.138;2022-08-01T15:59:48;32.40;35.30
14875;DHT22;7529;48.170;17.138;2022-08-01T16:03:59;36.40;33.10
14875;DHT22;7529;48.170;17.138;2022-08-01T16:08:16;38.60;31.50
14875;DHT22;7529;48.170;17.138;2022-08-01T16:12:31;38.70;31.30
14875;DHT22;7529;48.170;17.138;2022-08-01T16:16:43;37.90;31.50
14875;DHT22;7529;48.170;17.138;2022-08-01T16:20:54;36.90;31.90
14875;DHT22;7529;48.170;17.138;2022-08-01T16:25:07;37.40;31.50
14875;DHT22;7529;48.170;17.138;2022-08-01T16:29:19;38.10;31.10
14875;DHT22;7529;48.170;17.138;2022-08-01T16:33:31;37.70;31.20
14875;DHT22;7529;48.170;17.138;2022-08-01T16:37:44;37.30;31.30
14875;DHT22;7529;48.170;17.138;2022-08-01T16:41:56;37.20;31.40
14875;DHT22;7529;48.170;17.138;2022-08-01T16:46:08;37.10;31.30
14875;DHT22;7529;48.170;17.138;2022-08-01T16:50:21;36.70;31.60
14875;DHT22;7529;48.170;17.138;2022-08-01T16:54:33;35.80;32.20
14875;DHT22;7529;48.170;17.138;2022-08-01T16:58:45;34.00;33.40
14875;DHT22;7529;48.170;17.138;2022-08-01T17:02:56;33.90;33.40
14875;DHT22;7529;48.170;17.138;2022-08-01T17:07:08;33.70;33.60
14875;DHT22;7529;48.170;17.138;2022-08-01T17:11:20;33.10;34.20
14875;DHT22;7529;48.170;17.138;2022-08-01T17:15:32;33.00;34.30
14875;DHT22;7529;48.170;17.138;2022-08-01T17:19:44;32.80;34.60
14875;DHT22;7529;48.170;17.138;2022-08-01T17:23:56;32.40;34.90
14875;DHT22;7529;48.170;17.138;2022-08-01T17:28:08;31.90;35.40
14875;DHT22;7529;48.170;17.138;2022-08-01T17:32:20;31.50;35.90
14875;DHT22;7529;48.170;17.138;2022-08-01T17:36:32;30.80;36.40
14875;DHT22;7529;48.170;17.138;2022-08-01T17:40:43;29.90;37.20
14875;DHT22;7529;48.170;17.138;2022-08-01T17:44:56;28.90;38.00
14875;DHT22;7529;48.170;17.138;2022-08-01T17:49:08;28.70;38.50
14875;DHT22;7529;48.170;17.138;2022-08-01T17:53:20;28.40;38.60
14875;DHT22;7529;48.170;17.138;2022-08-01T17:57:33;27.80;39.20
14875;DHT22;7529;48.170;17.138;2022-08-01T18:01:45;27.30;39.80
14875;DHT22;7529;48.170;17.138;2022-08-01T18:05:58;26.90;40.20
14875;DHT22;7529;48.170;17.138;2022-08-01T18:10:11;26.60;40.70
14875;DHT22;7529;48.170;17.138;2022-08-01T18:14:23;26.30;41.00
14875;DHT22;7529;48.170;17.138;2022-08-01T18:18:35;26.00;41.40
14875;DHT22;7529;48.170;17.138;2022-08-01T18:22:48;25.80;41.80
14875;DHT22;7529;48.170;17.138;2022-08-01T18:27:00;25.60;42.10
14875;DHT22;7529;48.170;17.138;2022-08-01T18:31:12;25.50;42.50
14875;DHT22;7529;48.170;17.138;2022-08-01T18:35:26;25.30;42.70
14875;DHT22;7529;48.170;17.138;2022-08-01T18:39:38;25.20;42.90
14875;DHT22;7529;48.170;17.138;2022-08-01T18:43:49;25.20;43.20
14875;DHT22;7529;48.170;17.138;2022-08-01T18:48:02;25.20;43.40
14875;DHT22;7529;48.170;17.138;2022-08-01T18:52:20;25.20;43.60
14875;DHT22;7529;48.170;17.138;2022-08-01T18:56:32;25.20;43.90
14875;DHT22;7529;48.170;17.138;2022-08-01T19:00:44;25.10;43.80
14875;DHT22;7529;48.170;17.138;2022-08-01T19:04:56;25.00;44.00
14875;DHT22;7529;48.170;17.138;2022-08-01T19:09:07;24.90;44.20
14875;DHT22;7529;48.170;17.138;2022-08-01T19:13:19;24.80;44.40
14875;DHT22;7529;48.170;17.138;2022-08-01T19:17:30;24.70;44.80
14875;DHT22;7529;48.170;17.138;2022-08-01T19:21:42;24.60;45.10
14875;DHT22;7529;48.170;17.138;2022-08-01T19:25:55;24.50;45.30
14875;DHT22;7529;48.170;17.138;2022-08-01T19:30:08;24.50;45.30
14875;DHT22;7529;48.170;17.138;2022-08-01T19:34:22;24.50;45.40
14875;DHT22;7529;48.170;17.138;2022-08-01T19:38:35;24.50;45.60
14875;DHT22;7529;48.170;17.138;2022-08-01T19:42:47;24.30;45.80
14875;DHT22;7529;48.170;17.138;2022-08-01T19:46:59;24.20;45.90
14875;DHT22;7529;48.170;17.138;2022-08-01T19:51:15;24.20;46.10
14875;DHT22;7529;48.170;17.138;2022-08-01T19:55:29;24.10;46.10
14875;DHT22;7529;48.170;17.138;2022-08-01T19:59:41;24.10;46.10
14875;DHT22;7529;48.170;17.138;2022-08-01T20:03:57;24.10;46.10
14875;DHT22;7529;48.170;17.138;2022-08-01T20:08:11;24.10;46.30
14875;DHT22;7529;48.170;17.138;2022-08-01T20:12:23;24.00;46.50
14875;DHT22;7529;48.170;17.138;2022-08-01T20:16:34;23.90;46.60
14875;DHT22;7529;48.170;17.138;2022-08-01T20:20:50;23.80;46.70
14875;DHT22;7529;48.170;17.138;2022-08-01T20:25:03;23.70;46.90
14875;DHT22;7529;48.170;17.138;2022-08-01T20:29:16;23.70;47.10
14875;DHT22;7529;48.170;17.138;2022-08-01T20:33:28;23.70;47.40
14875;DHT22;7529;48.170;17.138;2022-08-01T20:37:41;23.80;47.60
14875;DHT22;7529;48.170;17.138;2022-08-01T20:41:53;23.70;47.90
14875;DHT22;7529;48.170;17.138;2022-08-01T20:46:05;23.90;47.60
14875;DHT22;7529;48.170;17.138;2022-08-01T20:50:17;24.00;48.30
14875;DHT22;7529;48.170;17.138;2022-08-01T20:54:47;24.00;47.80
14875;DHT22;7529;48.170;17.138;2022-08-01T20:59:01;23.90;48.00
14875;DHT22;7529;48.170;17.138;2022-08-01T21:03:32;23.80;48.20
14875;DHT22;7529;48.170;17.138;2022-08-01T21:07:51;23.80;48.50
14875;DHT22;7529;48.170;17.138;2022-08-01T21:12:04;23.60;48.70
14875;DHT22;7529;48.170;17.138;2022-08-01T21:16:24;23.40;49.10
14875;DHT22;7529;48.170;17.138;2022-08-01T21:20:43;23.20;49.50
14875;DHT22;7529;48.170;17.138;2022-08-01T21:25:04;23.10;49.70
14875;DHT22;7529;48.170;17.138;2022-08-01T21:29:21;23.00;49.90
14875;DHT22;7529;48.170;17.138;2022-08-01T21:33:35;22.90;49.80
14875;DHT22;7529;48.170;17.138;2022-08-01T21:37:48;22.90;50.00
14875;DHT22;7529;48.170;17.138;2022-08-01T21:42:03;22.80;50.20
14875;DHT22;7529;48.170;17.138;2022-08-01T21:46:16;22.70;50.50
14875;DHT22;7529;48.170;17.138;2022-08-01T21:50:38;22.60;50.80
14875;DHT22;7529;48.170;17.138;2022-08-01T21:55:04;22.50;51.10
14875;DHT22;7529;48.170;17.138;2022-08-01T21:59:47;22.40;51.30
14875;DHT22;7529;48.170;17.138;2022-08-01T22:04:05;22.40;51.30
14875;DHT22;7529;48.170;17.138;2022-08-01T22:08:54;22.40;51.30
14875;DHT22;7529;48.170;17.138;2022-08-01T22:13:08;22.50;51.90
14875;DHT22;7529;48.170;17.138;2022-08-01T22:17:22;22.50;51.30
14875;DHT22;7529;48.170;17.138;2022-08-01T22:21:37;22.50;51.60
14875;DHT22;7529;48.170;17.138;2022-08-01T22:25:51;22.40;52.00
14875;DHT22;7529;48.170;17.138;2022-08-01T22:30:05;22.40;52.10
14875;DHT22;7529;48.170;17.138;2022-08-01T22:34:18;22.30;52.20
14875;DHT22;7529;48.170;17.138;2022-08-01T22:38:30;22.30;52.40
14875;DHT22;7529;48.170;17.138;2022-08-01T22:47:06;22.30;52.50
14875;DHT22;7529;48.170;17.138;2022-08-01T22:51:54;22.40;52.80
14875;DHT22;7529;48.170;17.138;2022-08-01T22:56:10;22.40;52.90
14875;DHT22;7529;48.170;17.138;2022-08-01T23:00:26;22.50;52.60
14875;DHT22;7529;48.170;17.138;2022-08-01T23:04:48;22.60;53.00
14875;DHT22;7529;48.170;17.138;2022-08-01T23:09:02;22.60;53.20
14875;DHT22;7529;48.170;17.138;2022-08-01T23:13:14;22.60;53.10
14875;DHT22;7529;48.170;17.138;2022-08-01T23:17:30;22.60;53.20
14875;DHT22;7529;48.170;17.138;2022-08-01T23:21:43;22.60;53.40
14875;DHT22;7529;48.170;17.138;2022-08-01T23:25:56;22.60;53.50
14875;DHT22;7529;48.170;17.138;2022-08-01T23:30:08;22.60;53.60
14875;DHT22;7529;48.170;17.138;2022-08-01T23:34:20;22.70;53.70
14875;DHT22;7529;48.170;17.138;2022-08-01T23:38:32;22.70;53.70
14875;DHT22;7529;48.170;17.138;2022-08-01T23:42:43;22.70;53.90
14875;DHT22;7529;48.170;17.138;2022-08-01T23:46:55;22.60;54.00
14875;DHT22;7529;48.170;17.138;2022-08-01T23:51:06;22.60;54.20
14875;DHT22;7529;48.170;17.138;2022-08-01T23:55:21;22.60;54.40
14875;DHT22;7529;48.170;17.138;2022-08-01T23:59:34;22.60;54.50
